Terminal Aerodrome Forecast
Issued by NWS Oklahoma City, OK

Home | Current Version | Previous Version | Text Only | Print | Product List | Glossary On
Versions: 1 2 3 4 5 6 7 8 9 10 11 12 13 14 15 16 17 18 19 20 21 22 23 24
785
FTUS44 KOUN 111126
TAFOUN
TAF
KOUN 111126Z 1112/1212 19019G28KT P6SM OVC008
      TEMPO 1112/1115 4SM -DZ BR OVC004
     FM111600 22015G24KT P6SM OVC012
     FM112100 32013KT P6SM BKN025
     FM120000 36014KT P6SM BKN250
     FM120700 01010KT P6SM SCT250=

USA.gov is the U.S. government's official web portal to all federal, state and local government web resources and services.